Time;durP1;ratioP1;P1;durP2;ratioP2;P2;SDS_P1;SDS_P2;PMS_P1;PMS_P2;Temp;Humidity;BMP_temperature;BMP_pressure;BME280_temperature;BME280_humidity;BME280_pressure;Samples;Min_cycle;Max_cycle;Signal;HPM_P1;HPM_P2
2023/06/06 00:01:40;;;;;;;6.27;0.70;;;;;;;19.33;100.00;95659.38;5111753;28;20467;-61
2023/06/06 00:04:08;;;;;;;0.60;0.40;;;;;;;19.03;100.00;95661.09;5112026;28;20431;-61
2023/06/06 00:06:38;;;;;;;0.50;0.40;;;;;;;19.07;100.00;95652.41;5111777;28;20473;-61
2023/06/06 00:09:06;;;;;;;0.50;0.30;;;;;;;19.02;100.00;95651.44;5111843;28;20939;-61
2023/06/06 00:11:35;;;;;;;0.40;0.30;;;;;;;19.05;100.00;95650.03;5111907;28;20444;-61
2023/06/06 00:14:06;;;;;;;0.50;0.47;;;;;;;19.04;100.00;95648.47;5112473;28;20688;-61
2023/06/06 00:16:35;;;;;;;1.47;0.90;;;;;;;19.02;100.00;95656.06;5113383;28;20444;-61
2023/06/06 00:19:04;;;;;;;0.40;0.30;;;;;;;18.98;100.00;95652.38;5112064;28;20982;-61
2023/06/06 00:21:35;;;;;;;0.40;0.30;;;;;;;18.91;100.00;95652.88;5111663;28;20984;-61
2023/06/06 00:24:04;;;;;;;0.40;0.37;;;;;;;18.95;100.00;95656.50;5112065;28;20439;-61
2023/06/06 00:26:33;;;;;;;0.40;0.27;;;;;;;18.87;100.00;95662.63;5111349;28;20928;-61
2023/06/06 00:29:01;;;;;;;0.60;0.30;;;;;;;18.67;100.00;95624.84;5111647;28;20484;-61
2023/06/06 00:31:31;;;;;;;0.50;0.40;;;;;;;18.90;100.00;95658.53;5112203;28;20435;-61
2023/06/06 00:34:01;;;;;;;0.50;0.40;;;;;;;18.47;100.00;95655.72;5111989;28;20513;-61
2023/06/06 00:36:29;;;;;;;0.60;0.40;;;;;;;18.40;100.00;95653.47;5111678;28;20438;-61
2023/06/06 00:38:58;;;;;;;0.50;0.40;;;;;;;18.47;100.00;95655.72;5111474;28;20943;-61
2023/06/06 00:41:26;;;;;;;0.70;0.40;;;;;;;18.49;100.00;95661.59;5113460;28;20463;-61
2023/06/06 00:43:55;;;;;;;1.13;0.50;;;;;;;18.03;100.00;95663.88;5116456;28;20466;-61
2023/06/06 00:46:24;;;;;;;0.40;0.30;;;;;;;18.03;100.00;95669.25;5116125;28;20547;-61
2023/06/06 00:48:52;;;;;;;0.50;0.40;;;;;;;17.94;100.00;95654.97;5102086;28;20489;-61
2023/06/06 00:51:22;;;;;;;0.60;0.60;;;;;;;18.22;100.00;95667.91;5115802;28;20443;-61
2023/06/06 00:53:51;;;;;;;0.40;0.30;;;;;;;18.39;100.00;95659.16;5116166;28;21015;-60
2023/06/06 00:56:19;;;;;;;1.47;0.47;;;;;;;18.58;100.00;95666.97;5115999;28;20443;-60
2023/06/06 00:58:48;;;;;;;0.60;0.60;;;;;;;18.60;100.00;95656.72;5115103;28;20443;-60
2023/06/06 01:01:19;;;;;;;0.50;0.30;;;;;;;18.45;100.00;95657.09;5115401;28;20436;-60
2023/06/06 01:03:48;;;;;;;0.40;0.30;;;;;;;18.54;100.00;95655.28;5114619;28;20567;-61
2023/06/06 01:06:17;;;;;;;0.50;0.40;;;;;;;18.50;100.00;95652.44;5115644;28;20436;-61
2023/06/06 01:08:47;;;;;;;0.50;0.30;;;;;;;18.61;100.00;95652.94;5114327;28;20965;-61
2023/06/06 01:11:20;;;;;;;0.50;0.37;;;;;;;18.61;100.00;95653.75;5115072;28;20435;-60
2023/06/06 01:13:58;;;;;;;0.50;0.40;;;;;;;18.52;100.00;95657.50;5115134;28;20508;-61
2023/06/06 01:16:28;;;;;;;0.50;0.40;;;;;;;18.67;100.00;95652.47;5114924;28;20431;-61
2023/06/06 01:18:57;;;;;;;0.50;0.40;;;;;;;18.69;100.00;95655.66;5115295;28;20475;-61
2023/06/06 01:21:36;;;;;;;0.70;0.43;;;;;;;18.45;100.00;95660.59;5114632;27;20515;-61
2023/06/06 01:24:05;;;;;;;0.40;0.30;;;;;;;18.35;100.00;95658.19;5114889;28;20475;-61
2023/06/06 01:26:33;;;;;;;0.53;0.30;;;;;;;18.41;100.00;95659.63;5114505;28;20436;-61
2023/06/06 01:29:02;;;;;;;0.40;0.37;;;;;;;18.49;100.00;95653.56;5114828;28;20528;-61
2023/06/06 01:31:37;;;;;;;0.40;0.40;;;;;;;18.37;100.00;95661.34;5115165;28;20440;-60
2023/06/06 01:34:10;;;;;;;0.50;0.37;;;;;;;18.03;100.00;95653.94;5114533;28;20447;-60
2023/06/06 01:36:48;;;;;;;0.50;0.50;;;;;;;17.79;100.00;95658.81;5114936;28;20439;-60
2023/06/06 01:39:20;;;;;;;0.50;0.40;;;;;;;18.00;100.00;95661.78;5114808;28;20865;-60
2023/06/06 01:41:51;;;;;;;0.50;0.40;;;;;;;17.90;100.00;95662.84;5114632;28;20432;-60
2023/06/06 01:44:21;;;;;;;0.80;0.80;;;;;;;17.78;100.00;95668.75;5108481;28;20432;-60
2023/06/06 01:46:50;;;;;;;1.10;0.40;;;;;;;17.93;100.00;95656.09;5107941;28;20444;-60
2023/06/06 01:49:19;;;;;;;0.60;0.33;;;;;;;18.15;100.00;95656.84;5087291;28;20493;-60
2023/06/06 01:51:48;;;;;;;4.20;0.30;;;;;;;18.33;100.00;95660.38;5113588;28;20451;-60
2023/06/06 01:54:17;;;;;;;0.50;0.43;;;;;;;18.53;100.00;95659.88;5114633;28;20439;-60
2023/06/06 01:56:45;;;;;;;0.40;0.40;;;;;;;18.62;100.00;95655.31;5114195;28;20995;-60
2023/06/06 01:59:13;;;;;;;4.40;0.33;;;;;;;18.06;100.00;95660.59;5114269;28;20443;-60
2023/06/06 02:01:43;;;;;;;0.40;0.30;;;;;;;17.60;100.00;95602.75;5114570;28;20522;-60
2023/06/06 02:04:11;;;;;;;0.63;0.57;;;;;;;17.87;100.00;95657.28;5114299;28;20971;-60
2023/06/06 02:06:40;;;;;;;0.50;0.40;;;;;;;17.97;100.00;95643.63;5114177;28;20436;-60
2023/06/06 02:09:10;;;;;;;0.60;0.40;;;;;;;18.19;100.00;95639.00;5114198;28;20954;-60
2023/06/06 02:11:38;;;;;;;0.50;0.40;;;;;;;18.40;100.00;95663.41;5113150;28;20561;-60
2023/06/06 02:14:08;;;;;;;1.33;0.40;;;;;;;18.58;100.00;95665.09;5113995;28;20443;-60
2023/06/06 02:16:37;;;;;;;0.40;0.33;;;;;;;18.63;100.00;95656.91;5100254;28;20440;-60
2023/06/06 02:19:05;;;;;;;0.47;0.30;;;;;;;18.63;100.00;95650.72;5114266;28;20493;-60
2023/06/06 02:21:34;;;;;;;0.67;0.57;;;;;;;18.70;100.00;95659.91;5113743;28;20440;-59
2023/06/06 02:24:02;;;;;;;0.50;0.30;;;;;;;18.73;100.00;95655.81;5113571;28;20476;-60
2023/06/06 02:26:35;;;;;;;0.50;0.50;;;;;;;18.70;100.00;95665.28;5113333;28;20851;-60
2023/06/06 02:29:06;;;;;;;1.47;0.80;;;;;;;18.18;100.00;95658.09;5113350;28;20463;-60
2023/06/06 02:31:36;;;;;;;0.40;0.30;;;;;;;18.11;100.00;95674.66;5087806;28;20562;-60
2023/06/06 02:34:04;;;;;;;0.60;0.50;;;;;;;18.38;100.00;95665.63;5113626;28;20451;-60
2023/06/06 02:36:33;;;;;;;0.70;0.60;;;;;;;18.49;100.00;95666.16;5105399;28;20445;-60
2023/06/06 02:39:03;;;;;;;0.50;0.40;;;;;;;18.45;100.00;95668.63;5108770;28;20497;-60
2023/06/06 02:41:33;;;;;;;0.50;0.40;;;;;;;18.27;100.00;95672.34;5113906;28;20428;-60
2023/06/06 02:44:01;;;;;;;0.50;0.50;;;;;;;18.10;100.00;95669.59;5113831;28;20646;-60
2023/06/06 02:46:30;;;;;;;0.60;0.40;;;;;;;17.47;100.00;95675.13;5113544;28;20436;-60
2023/06/06 02:48:59;;;;;;;0.40;0.30;;;;;;;17.30;100.00;95683.84;5113497;28;20440;-60
2023/06/06 02:51:27;;;;;;;0.83;0.83;;;;;;;16.99;100.00;95682.91;5113162;28;20535;-61
2023/06/06 02:53:55;;;;;;;0.80;0.43;;;;;;;17.02;100.00;95682.31;5113170;28;20489;-61
2023/06/06 02:56:25;;;;;;;0.70;0.60;;;;;;;16.85;100.00;95684.81;5113716;28;20519;-60
2023/06/06 02:58:55;;;;;;;1.00;0.77;;;;;;;16.66;100.00;95692.16;5113242;28;20554;-60
2023/06/06 03:01:25;;;;;;;1.23;1.13;;;;;;;16.58;100.00;95690.16;5113091;28;20493;-60
2023/06/06 03:03:53;;;;;;;1.23;1.13;;;;;;;16.50;100.00;95689.75;5111607;28;20522;-60
2023/06/06 03:06:22;;;;;;;0.87;0.87;;;;;;;16.58;100.00;95692.84;5113257;28;20440;-60
2023/06/06 03:08:55;;;;;;;0.63;0.63;;;;;;;16.65;100.00;95680.63;5112880;28;20810;-60
2023/06/06 03:11:23;;;;;;;0.40;0.40;;;;;;;17.14;100.00;95679.88;5112457;28;20460;-60
2023/06/06 03:13:51;;;;;;;0.60;0.40;;;;;;;17.56;100.00;95686.72;5111811;28;20460;-59
2023/06/06 03:16:26;;;;;;;0.50;0.40;;;;;;;17.61;100.00;95686.59;5112857;28;20460;-59
2023/06/06 03:18:54;;;;;;;0.53;0.53;;;;;;;17.51;100.00;95684.13;5103226;28;20432;-60
2023/06/06 03:21:23;;;;;;;0.50;0.40;;;;;;;17.36;100.00;95684.47;5109098;28;20948;-60
2023/06/06 03:23:51;;;;;;;0.60;0.50;;;;;;;17.69;100.00;95692.03;5112838;28;20475;-59
2023/06/06 03:26:20;;;;;;;0.70;0.50;;;;;;;17.97;100.00;95681.97;5112211;28;20511;-60
2023/06/06 03:28:48;;;;;;;0.60;0.60;;;;;;;18.16;100.00;95679.09;5112240;28;20467;-60
2023/06/06 03:31:20;;;;;;;0.70;0.70;;;;;;;18.14;100.00;95676.69;5112411;28;21003;-60
2023/06/06 03:33:50;;;;;;;1.23;0.47;;;;;;;17.92;100.00;95679.41;5112209;28;20442;-60
2023/06/06 03:36:19;;;;;;;0.40;0.30;;;;;;;17.81;100.00;95674.63;5112086;28;20497;-60
2023/06/06 03:38:47;;;;;;;0.50;0.30;;;;;;;17.98;100.00;95680.88;5112998;28;20805;-61
2023/06/06 03:41:16;;;;;;;0.70;0.70;;;;;;;18.18;100.00;95674.22;5113184;28;20463;-61
2023/06/06 03:43:45;;;;;;;0.50;0.30;;;;;;;18.04;100.00;95674.28;5112201;28;20468;-60
2023/06/06 03:46:13;;;;;;;0.60;0.50;;;;;;;17.73;100.00;95676.91;5112582;28;20447;-61
2023/06/06 03:48:41;;;;;;;4.10;0.60;;;;;;;17.91;100.00;95675.16;5112564;28;20535;-61
2023/06/06 03:51:11;;;;;;;0.80;0.50;;;;;;;17.64;100.00;95686.00;5112575;28;20436;-61
2023/06/06 03:53:40;;;;;;;0.50;0.40;;;;;;;17.87;100.00;95687.59;5111735;28;20440;-61
2023/06/06 03:56:09;;;;;;;0.83;0.83;;;;;;;17.95;100.00;95684.19;5112549;28;20508;-61
2023/06/06 03:58:37;;;;;;;0.73;0.73;;;;;;;17.87;100.00;95687.59;5112199;28;20448;-61
2023/06/06 04:01:05;;;;;;;0.63;0.63;;;;;;;18.15;100.00;95680.19;5112483;28;20428;-62
2023/06/06 04:03:36;;;;;;;0.60;0.60;;;;;;;17.83;100.00;95683.94;5111618;28;20528;-62
2023/06/06 04:06:07;;;;;;;3.17;1.13;;;;;;;17.30;100.00;95683.84;5112106;28;20502;-61
2023/06/06 04:08:37;;;;;;;1.93;1.53;;;;;;;17.24;100.00;95693.06;5111991;28;20431;-61
2023/06/06 04:11:06;;;;;;;0.67;0.67;;;;;;;17.41;100.00;95684.38;5112023;28;20439;-61
2023/06/06 04:13:34;;;;;;;0.50;0.47;;;;;;;17.62;100.00;95697.03;5111754;28;20450;-61
2023/06/06 04:16:03;;;;;;;0.97;0.60;;;;;;;17.60;100.00;95696.56;5111432;28;20492;-61
2023/06/06 04:18:31;;;;;;;4.00;0.97;;;;;;;17.35;100.00;95702.47;5111830;28;20470;-62
2023/06/06 04:21:00;;;;;;;0.80;0.70;;;;;;;17.48;100.00;95692.81;5111919;28;20447;-61
2023/06/06 04:23:28;;;;;;;3.80;0.70;;;;;;;17.39;100.00;95667.81;5111554;28;20519;-62
2023/06/06 04:26:01;;;;;;;0.40;0.30;;;;;;;17.68;100.00;95708.44;5111562;28;21092;-62
2023/06/06 04:28:31;;;;;;;0.60;0.60;;;;;;;17.70;100.00;95701.69;5111371;28;20482;-62
2023/06/06 04:31:00;;;;;;;0.80;0.73;;;;;;;17.51;100.00;95703.69;5111252;28;20443;-62
2023/06/06 04:33:30;;;;;;;0.50;0.50;;;;;;;18.13;100.00;95693.91;5111937;28;20447;-61
2023/06/06 04:36:00;;;;;;;0.90;0.90;;;;;;;18.20;100.00;95701.50;5114919;28;20446;-64
2023/06/06 04:38:29;;;;;;;0.60;0.53;;;;;;;18.22;100.00;95699.31;5128622;28;20447;-68
2023/06/06 04:41:01;;;;;;;0.40;0.30;;;;;;;18.20;100.00;95707.69;5111863;28;20440;-68
2023/06/06 04:43:51;;;;;;;6.53;1.80;;;;;;;18.70;100.00;95700.19;5111254;28;21118;-68
2023/06/06 04:46:23;;;;;;;0.70;0.50;;;;;;;18.74;100.00;95698.47;5111915;28;20435;-68
2023/06/06 04:48:55;;;;;;;2.97;1.77;;;;;;;18.72;100.00;95697.22;5111118;28;20446;-67
2023/06/06 04:51:29;;;;;;;0.77;0.67;;;;;;;18.69;100.00;95704.00;5102159;28;20862;-67
2023/06/06 04:53:59;;;;;;;0.87;0.87;;;;;;;19.28;100.00;95697.16;5108753;28;20456;-67
2023/06/06 04:56:29;;;;;;;0.40;0.30;;;;;;;19.61;100.00;95694.84;5111367;28;20986;-67
2023/06/06 04:59:05;;;;;;;1.17;0.80;;;;;;;19.70;100.00;95701.03;5111211;28;21002;-67
2023/06/06 05:01:36;;;;;;;0.53;0.47;;;;;;;19.77;100.00;95690.56;5111529;28;20458;-66
2023/06/06 05:04:05;;;;;;;0.70;0.60;;;;;;;19.86;100.00;95691.34;5085307;28;20488;-66
2023/06/06 05:06:34;;;;;;;0.50;0.50;;;;;;;19.82;100.00;95674.28;5111218;28;21020;-65
2023/06/06 05:09:04;;;;;;;1.03;0.97;;;;;;;19.69;100.00;95685.97;5111427;28;20526;-66
2023/06/06 05:11:35;;;;;;;0.60;0.30;;;;;;;19.63;100.00;95685.34;5097703;28;20472;-65
2023/06/06 05:14:03;;;;;;;0.53;0.50;;;;;;;19.34;100.00;95673.63;5111470;28;20436;-65
2023/06/06 05:16:32;;;;;;;0.73;0.73;;;;;;;19.57;100.00;95686.63;5110876;28;21095;-64
2023/06/06 05:19:01;;;;;;;4.60;0.50;;;;;;;19.77;100.00;95682.50;5111707;28;20443;-65
2023/06/06 05:21:30;;;;;;;2.20;0.80;;;;;;;19.56;100.00;95678.88;5111315;28;20998;-65
2023/06/06 05:23:58;;;;;;;0.90;0.70;;;;;;;19.87;100.00;95676.78;5111193;28;20525;-71
2023/06/06 05:26:27;;;;;;;0.50;0.50;;;;;;;20.04;100.00;95679.44;5110822;28;20543;-71
2023/06/06 05:28:57;;;;;;;0.43;0.37;;;;;;;19.80;100.00;95673.81;5114592;28;20506;-71
2023/06/06 05:31:25;;;;;;;0.50;0.40;;;;;;;19.83;100.00;95673.16;5114518;28;20980;-71
2023/06/06 05:33:54;;;;;;;0.50;0.40;;;;;;;19.79;100.00;95684.88;5114805;28;20518;-71
2023/06/06 05:36:23;;;;;;;0.90;0.90;;;;;;;20.16;100.00;95679.56;5114755;28;20522;-72
2023/06/06 05:38:51;;;;;;;2.03;1.83;;;;;;;19.99;100.00;95674.22;5114704;27;20878;-71
2023/06/06 05:41:20;;;;;;;1.17;1.10;;;;;;;19.71;100.00;95675.69;5115115;28;20435;-75
2023/06/06 05:43:50;;;;;;;0.60;0.50;;;;;;;20.32;100.00;95673.69;5114689;28;20435;-74
2023/06/06 05:46:20;;;;;;;0.50;0.50;;;;;;;20.51;100.00;95680.31;5115103;28;20474;-75
2023/06/06 05:48:48;;;;;;;2.10;0.60;;;;;;;20.66;100.00;95677.06;5114712;28;20451;-74
2023/06/06 05:51:17;;;;;;;0.43;0.40;;;;;;;20.81;100.00;95681.91;5114713;28;20951;-74
2023/06/06 05:53:45;;;;;;;0.50;0.40;;;;;;;20.56;100.00;95679.34;5114037;28;20439;-75
2023/06/06 05:56:16;;;;;;;1.07;0.70;;;;;;;20.86;100.00;95679.03;5114634;28;20524;-74
2023/06/06 05:58:49;;;;;;;1.13;0.73;;;;;;;20.85;100.00;95676.66;5114175;28;20485;-73
2023/06/06 06:01:20;;;;;;;0.90;0.90;;;;;;;20.13;100.00;95655.22;5114699;27;20515;-74
2023/06/06 06:03:49;;;;;;;33.60;3.90;;;;;;;20.29;100.00;95671.69;5114028;28;20492;-73
2023/06/06 06:06:19;;;;;;;0.70;0.53;;;;;;;20.31;100.00;95674.81;5114421;28;20505;-73
2023/06/06 06:08:49;;;;;;;0.90;0.90;;;;;;;20.56;100.00;95672.03;5114026;28;20428;-71
2023/06/06 06:11:19;;;;;;;0.70;0.70;;;;;;;20.70;100.00;95674.50;5114407;28;20443;-60
2023/06/06 06:13:47;;;;;;;0.80;0.70;;;;;;;21.31;100.00;95670.38;5113813;28;20447;-60
2023/06/06 06:16:16;;;;;;;0.80;0.80;;;;;;;21.58;100.00;95674.47;5114220;28;20444;-57
2023/06/06 06:18:46;;;;;;;0.60;0.60;;;;;;;21.01;100.00;95672.28;5113920;28;20436;-58
2023/06/06 06:21:14;;;;;;;0.60;0.60;;;;;;;21.66;100.00;95670.88;5113548;28;20867;-58
2023/06/06 06:23:46;;;;;;;0.60;0.60;;;;;;;21.74;100.00;95673.53;5113857;28;20924;-59
2023/06/06 06:26:14;;;;;;;0.73;0.73;;;;;;;22.48;100.00;95667.22;5113939;28;20482;-59
2023/06/06 06:28:42;;;;;;;0.77;0.73;;;;;;;22.13;95.98;95666.84;5113577;28;20853;-58
2023/06/06 06:31:11;;;;;;;0.90;0.47;;;;;;;22.41;93.37;95656.19;5113689;28;20531;-58
2023/06/06 06:33:39;;;;;;;0.50;0.40;;;;;;;22.20;93.06;95658.16;5113870;28;20444;-58
2023/06/06 06:36:09;;;;;;;1.33;1.23;;;;;;;22.56;95.22;95664.44;5113391;28;20947;-60
2023/06/06 06:38:38;;;;;;;1.00;0.80;;;;;;;22.41;89.69;95659.69;5113524;28;20443;-59
2023/06/06 06:41:06;;;;;;;1.40;1.33;;;;;;;22.50;90.60;95657.66;5113168;28;20527;-60
2023/06/06 06:43:35;;;;;;;2.20;1.50;;;;;;;22.80;87.82;95647.47;5113438;27;20432;-60
2023/06/06 06:46:03;;;;;;;4.53;0.50;;;;;;;23.22;93.63;95648.00;5112127;28;20533;-60
2023/06/06 06:48:32;;;;;;;1.17;1.07;;;;;;;23.25;88.49;95652.72;5113324;28;20456;-59
2023/06/06 06:51:00;;;;;;;0.57;0.57;;;;;;;22.88;92.43;95648.47;5086639;28;20512;-59
2023/06/06 06:53:31;;;;;;;0.40;0.30;;;;;;;23.56;86.65;95644.75;5112626;27;20518;-59
2023/06/06 06:56:01;;;;;;;0.87;0.70;;;;;;;24.27;81.77;95641.28;5112929;28;20440;-58
2023/06/06 06:58:33;;;;;;;1.00;0.90;;;;;;;24.24;80.76;95648.19;5112822;28;20516;-60
2023/06/06 07:01:03;;;;;;;1.00;0.80;;;;;;;23.59;81.41;95635.16;5113058;27;20924;-60
2023/06/06 07:03:34;;;;;;;0.50;0.50;;;;;;;24.28;79.06;95596.81;5112471;28;20436;-60
2023/06/06 07:06:04;;;;;;;0.60;0.60;;;;;;;24.37;80.06;95643.50;5101282;28;20490;-60
2023/06/06 07:08:33;;;;;;;1.10;0.77;;;;;;;24.34;79.84;95638.75;5110766;28;20985;-53
2023/06/06 07:11:02;;;;;;;0.73;0.73;;;;;;;23.85;81.08;95643.66;5112697;28;20436;-53
2023/06/06 07:13:32;;;;;;;2.83;1.23;;;;;;;24.18;79.01;95636.06;5112304;28;20448;-53
2023/06/06 07:16:01;;;;;;;1.03;1.03;;;;;;;24.48;80.40;95639.13;5112713;28;20471;-52
2023/06/06 07:18:29;;;;;;;0.90;0.57;;;;;;;25.00;77.26;95634.22;5112853;28;20432;-63
2023/06/06 07:20:57;;;;;;;0.80;0.73;;;;;;;24.08;76.75;95635.78;5112282;28;20447;-62
2023/06/06 07:23:26;;;;;;;0.40;0.40;;;;;;;24.41;76.74;95636.25;5112822;28;20862;-63
2023/06/06 07:25:56;;;;;;;0.50;0.30;;;;;;;24.62;73.61;95637.56;5112227;28;20479;-62
2023/06/06 07:28:25;;;;;;;0.73;0.73;;;;;;;24.56;74.27;95621.91;5111986;28;20486;-63
2023/06/06 07:30:54;;;;;;;0.60;0.60;;;;;;;24.69;72.64;95633.44;5111559;28;20947;-64
2023/06/06 07:33:22;;;;;;;1.20;1.20;;;;;;;24.62;76.42;95620.50;5112446;28;20431;-64
2023/06/06 07:35:50;;;;;;;0.60;0.60;;;;;;;24.97;73.23;95629.50;5112076;28;20504;-64
2023/06/06 07:38:20;;;;;;;0.83;0.50;;;;;;;25.89;72.31;95617.88;5112630;28;20530;-63
2023/06/06 07:40:48;;;;;;;0.50;0.50;;;;;;;26.17;68.78;95626.59;5111531;28;20470;-63
2023/06/06 07:43:18;;;;;;;0.60;0.60;;;;;;;26.53;70.05;95621.78;5111790;28;20865;-63
2023/06/06 07:45:47;;;;;;;0.60;0.60;;;;;;;26.47;68.96;95611.22;5111368;28;20511;-62
2023/06/06 07:48:15;;;;;;;0.70;0.70;;;;;;;26.78;67.08;95623.00;5112414;28;20436;-63
2023/06/06 07:50:44;;;;;;;0.63;0.63;;;;;;;26.84;67.31;95608.69;5111278;28;20439;-63
2023/06/06 07:53:12;;;;;;;1.40;1.30;;;;;;;27.10;66.48;95624.25;5111920;28;20432;-64
2023/06/06 07:55:41;;;;;;;2.87;0.70;;;;;;;25.77;69.53;95618.03;5111406;28;20518;-65
2023/06/06 07:58:11;;;;;;;0.80;0.80;;;;;;;25.95;67.39;95597.44;5111332;28;20443;-65
2023/06/06 08:00:41;;;;;;;0.80;0.73;;;;;;;26.02;67.22;95613.88;5111617;28;20436;-65
2023/06/06 08:03:11;;;;;;;0.60;0.53;;;;;;;26.60;65.93;95611.81;5111470;28;20955;-65
2023/06/06 08:05:40;;;;;;;1.90;1.70;;;;;;;26.78;66.35;95609.38;5111850;28;20467;-65
2023/06/06 08:08:08;;;;;;;0.90;0.90;;;;;;;27.02;63.24;95607.03;5111252;28;20496;-65
2023/06/06 08:10:37;;;;;;;0.50;0.50;;;;;;;27.68;62.17;95594.69;5111734;28;20436;-66
2023/06/06 08:13:05;;;;;;;0.63;0.63;;;;;;;27.29;61.45;95598.84;5111102;28;20489;-66
2023/06/06 08:15:33;;;;;;;0.70;0.40;;;;;;;27.99;61.33;95588.03;5111448;28;20514;-69
2023/06/06 08:18:04;;;;;;;0.50;0.40;;;;;;;28.63;59.75;95594.94;5111566;28;20443;-68
2023/06/06 08:20:32;;;;;;;0.50;0.50;;;;;;;28.70;58.59;95597.72;5111691;28;20485;-67
2023/06/06 08:23:00;;;;;;;0.60;0.50;;;;;;;28.92;59.67;95596.69;5111456;28;20432;-67
2023/06/06 08:25:31;;;;;;;0.40;0.30;;;;;;;29.15;57.17;95596.44;5111692;28;20436;-68
2023/06/06 08:28:00;;;;;;;0.63;0.63;;;;;;;29.42;57.01;95592.34;5111167;28;20440;-67
2023/06/06 08:30:28;;;;;;;0.47;0.30;;;;;;;29.13;55.97;95590.59;5111363;28;20922;-66
2023/06/06 08:32:56;;;;;;;1.70;0.60;;;;;;;28.37;54.57;95574.03;5111382;28;20495;-65
2023/06/06 08:35:26;;;;;;;0.40;0.40;;;;;;;29.02;54.48;95578.84;5111324;28;20522;-69
2023/06/06 08:37:55;;;;;;;2.10;0.67;;;;;;;28.53;54.28;95590.16;5111178;28;20432;-66
2023/06/06 08:40:24;;;;;;;0.40;0.30;;;;;;;29.17;54.30;95575.03;5110915;28;20435;-64
2023/06/06 08:42:53;;;;;;;0.87;0.80;;;;;;;29.47;52.75;95573.63;5111760;28;20443;-65
2023/06/06 08:45:22;;;;;;;1.83;0.50;;;;;;;30.36;53.04;95573.94;5111277;28;20462;-64
2023/06/06 08:47:51;;;;;;;0.77;0.77;;;;;;;30.06;48.25;95560.56;5111371;28;20479;-66
2023/06/06 08:50:22;;;;;;;0.80;0.80;;;;;;;29.33;51.39;95572.78;5111046;28;20946;-67
2023/06/06 08:52:53;;;;;;;2.00;0.60;;;;;;;28.37;50.46;95559.63;5110726;28;20493;-67
2023/06/06 08:55:22;;;;;;;0.67;0.67;;;;;;;28.59;50.55;95559.41;5110925;28;20513;-66
2023/06/06 08:57:52;;;;;;;0.50;0.50;;;;;;;28.92;48.23;95563.94;5111049;28;20467;-66
2023/06/06 09:00:22;;;;;;;0.53;0.50;;;;;;;29.14;42.95;95548.50;5110845;28;20431;-67
2023/06/06 09:02:53;;;;;;;1.73;0.40;;;;;;;29.53;46.65;95560.38;5104241;28;20442;-66
2023/06/06 09:05:22;;;;;;;0.70;0.70;;;;;;;28.82;46.05;95559.22;5115537;28;20470;-67
2023/06/06 09:07:54;;;;;;;0.60;0.60;;;;;;;29.82;45.56;95556.63;5116295;28;20511;-67
2023/06/06 09:10:22;;;;;;;1.03;0.87;;;;;;;29.55;47.88;95558.06;5120848;28;20480;-67
2023/06/06 09:12:51;;;;;;;0.73;0.60;;;;;;;29.16;47.63;95557.06;5115066;28;21036;-66
2023/06/06 09:15:21;;;;;;;0.47;0.40;;;;;;;29.31;49.19;95548.59;5114936;28;20439;-67
2023/06/06 09:17:54;;;;;;;0.50;0.50;;;;;;;29.57;41.01;95550.28;5115047;28;20440;-66
2023/06/06 09:20:24;;;;;;;0.40;0.30;;;;;;;29.91;41.95;95524.22;5115519;28;20435;-67
2023/06/06 09:22:57;;;;;;;0.80;0.43;;;;;;;30.46;46.65;95540.34;5115139;28;20514;-66
2023/06/06 09:25:27;;;;;;;0.43;0.43;;;;;;;29.55;39.27;95542.44;5115244;28;20767;-66
2023/06/06 09:27:59;;;;;;;2.30;0.50;;;;;;;30.24;40.43;95535.97;5114858;28;20474;-66
2023/06/06 09:30:29;;;;;;;1.50;0.30;;;;;;;29.97;38.54;95509.03;5115209;28;20435;-66
2023/06/06 09:33:00;;;;;;;0.63;0.63;;;;;;;30.21;39.16;95528.59;5115298;28;20434;-62
2023/06/06 09:35:30;;;;;;;0.50;0.40;;;;;;;30.34;39.97;95529.75;5115150;28;20439;-63
2023/06/06 09:38:07;;;;;;;0.80;0.30;;;;;;;31.55;39.06;95517.44;5088377;28;20450;-62
2023/06/06 09:40:45;;;;;;;0.50;0.50;;;;;;;31.99;39.86;95512.13;5114847;28;20923;-63
2023/06/06 09:43:14;;;;;;;0.40;0.40;;;;;;;31.64;37.15;95512.31;5114695;28;20430;-63
2023/06/06 09:45:52;;;;;;;0.63;0.50;;;;;;;31.52;40.60;95501.81;5114946;28;20443;-63
2023/06/06 09:48:22;;;;;;;0.30;0.30;;;;;;;32.14;38.65;95508.09;5114789;28;20478;-63
2023/06/06 09:50:51;;;;;;;0.50;0.47;;;;;;;31.34;40.62;95508.13;5115276;28;20819;-64
2023/06/06 09:53:25;;;;;;;0.40;0.40;;;;;;;30.84;39.79;95506.66;5114893;28;20461;-62
2023/06/06 09:55:57;;;;;;;0.40;0.30;;;;;;;30.88;39.94;95455.44;5114750;28;20846;-64
2023/06/06 09:58:29;;;;;;;0.60;0.60;;;;;;;30.37;43.36;95496.16;5114392;28;20517;-64
2023/06/06 10:00:59;;;;;;;0.40;0.30;;;;;;;31.38;41.33;95497.13;5114763;28;20435;-64
2023/06/06 10:03:30;;;;;;;0.43;0.37;;;;;;;31.50;40.46;95493.97;5114407;28;20431;-63
2023/06/06 10:05:59;;;;;;;0.40;0.40;;;;;;;31.53;37.03;95484.16;5114067;28;20449;-64
2023/06/06 10:08:31;;;;;;;0.73;0.60;;;;;;;30.47;42.18;95487.19;5114196;28;20475;-70
2023/06/06 10:11:00;;;;;;;0.63;0.63;;;;;;;30.47;41.13;95484.44;5114869;28;20496;-71
2023/06/06 10:13:28;;;;;;;0.60;0.60;;;;;;;30.90;42.09;95483.22;5113545;28;20444;-71
2023/06/06 10:15:58;;;;;;;0.60;0.37;;;;;;;31.19;40.96;95462.78;5114837;28;20439;-71
2023/06/06 10:18:27;;;;;;;0.30;0.30;;;;;;;30.54;35.11;95466.06;5114453;28;20958;-72
2023/06/06 10:20:57;;;;;;;0.40;0.30;;;;;;;30.76;30.63;95458.59;5114197;28;20587;-70
2023/06/06 10:23:25;;;;;;;2.00;0.83;;;;;;;30.60;34.31;95458.25;5080839;28;20428;-73
2023/06/06 10:25:58;;;;;;;0.93;0.90;;;;;;;30.89;33.81;95456.97;5107347;28;20438;-71
2023/06/06 10:28:31;;;;;;;0.47;0.47;;;;;;;31.43;34.81;95444.66;5114059;28;20865;-73
2023/06/06 10:31:06;;;;;;;0.40;0.30;;;;;;;31.79;34.92;95450.75;5113805;28;20439;-73
2023/06/06 10:33:42;;;;;;;0.40;0.33;;;;;;;31.56;36.26;95448.53;5114944;28;20439;-76
2023/06/06 10:36:15;;;;;;;0.50;0.40;;;;;;;32.71;34.42;95448.06;5114319;28;20484;-77
2023/06/06 10:39:21;;;;;;;0.47;0.40;;;;;;;33.08;34.48;95441.78;5114947;28;20518;-77
2023/06/06 10:41:53;;;;;;;0.40;0.30;;;;;;;33.13;35.63;95447.59;5114287;28;20950;-69
2023/06/06 10:44:34;;;;;;;0.50;0.50;;;;;;;32.57;34.30;95435.25;5113656;28;20485;-69
2023/06/06 10:47:28;;;;;;;0.50;0.40;;;;;;;33.17;35.38;95420.06;5113789;28;20496;-71
2023/06/06 10:50:21;;;;;;;2.30;0.97;;;;;;;31.13;35.53;95439.72;5110793;28;20439;-72
2023/06/06 10:52:55;;;;;;;0.70;0.50;;;;;;;31.18;36.03;95430.31;5090037;28;20438;-70
2023/06/06 10:55:45;;;;;;;0.40;0.40;;;;;;;31.41;34.57;95417.69;5113084;28;20495;-71
2023/06/06 10:58:27;;;;;;;0.40;0.30;;;;;;;31.80;34.42;95353.63;5114008;28;20443;-69
2023/06/06 11:01:02;;;;;;;0.50;0.43;;;;;;;31.83;34.96;95418.59;5113636;28;20961;-72
2023/06/06 11:03:39;;;;;;;0.50;0.50;;;;;;;31.64;34.78;95413.66;5113693;28;20461;-72
2023/06/06 11:06:16;;;;;;;0.60;0.60;;;;;;;31.70;35.15;95406.56;5113814;28;20522;-73
2023/06/06 11:08:47;;;;;;;0.40;0.30;;;;;;;31.50;34.03;95411.00;5100190;28;20470;-72
2023/06/06 11:11:20;;;;;;;1.07;1.07;;;;;;;31.52;33.78;95409.44;5113418;28;20434;-70
2023/06/06 11:13:57;;;;;;;0.50;0.50;;;;;;;31.77;34.06;95404.56;5113390;28;20435;-71
2023/06/06 11:16:45;;;;;;;0.83;0.40;;;;;;;31.28;34.91;95391.13;5113167;28;20439;-73
2023/06/06 11:19:15;;;;;;;0.73;0.73;;;;;;;30.69;34.46;95379.25;5111514;28;20451;-70
2023/06/06 11:21:45;;;;;;;1.07;0.50;;;;;;;30.95;33.44;95400.69;5125956;28;20476;-71
2023/06/06 11:24:14;;;;;;;1.17;0.30;;;;;;;31.66;32.01;95392.88;5121216;28;20439;-62
2023/06/06 11:26:44;;;;;;;0.40;0.30;;;;;;;32.48;31.45;95385.53;5087684;28;20463;-69
2023/06/06 11:29:14;;;;;;;1.07;0.40;;;;;;;32.27;31.20;95385.75;5112690;28;20513;-69
2023/06/06 11:31:43;;;;;;;0.50;0.30;;;;;;;32.23;29.89;95381.47;5112656;28;20947;-70
2023/06/06 11:34:13;;;;;;;0.70;0.50;;;;;;;32.03;30.47;95389.47;5112849;27;20493;-69
2023/06/06 11:36:44;;;;;;;0.70;0.70;;;;;;;31.77;30.09;95377.16;5112808;28;20518;-69
2023/06/06 11:39:14;;;;;;;0.47;0.47;;;;;;;31.58;29.49;95385.88;5112593;28;20453;-69
2023/06/06 11:41:45;;;;;;;0.33;0.30;;;;;;;31.45;29.38;95381.28;5112160;28;20518;-70
2023/06/06 11:44:17;;;;;;;0.93;0.30;;;;;;;32.18;30.78;95363.47;5111903;28;20435;-69